Time;durP1;ratioP1;P1;durP2;ratioP2;P2;SDS_P1;SDS_P2;PMS_P1;PMS_P2;Temp;Humidity;BMP_temperature;BMP_pressure;BME280_temperature;BME280_humidity;BME280_pressure;Samples;Min_cycle;Max_cycle;Signal;HPM_P1;HPM_P2
2023/01/26 00:00:56;;;;;;;88.43;23.48;;;1.30;99.90;;;;;;5025369;28;20101;-43
2023/01/26 00:03:22;;;;;;;93.20;22.15;;;1.40;99.90;;;;;;5027416;28;20029;-41
2023/01/26 00:05:47;;;;;;;88.30;23.30;;;1.30;99.90;;;;;;5064145;28;20033;-39
2023/01/26 00:08:13;;;;;;;86.75;21.83;;;1.30;99.90;;;;;;5033153;28;20024;-41
2023/01/26 00:10:40;;;;;;;88.15;22.92;;;1.40;99.90;;;;;;5031724;28;20071;-41
2023/01/26 00:13:09;;;;;;;81.00;23.30;;;1.40;99.90;;;;;;5030086;28;20474;-41
2023/01/26 00:15:34;;;;;;;;;;;1.40;99.90;;;;;;5033229;28;20501;-39
2023/01/26 00:18:01;;;;;;;80.68;21.85;;;1.30;99.90;;;;;;5033014;28;19905;-40
2023/01/26 00:20:28;;;;;;;80.05;22.25;;;1.30;99.90;;;;;;5021810;28;20109;-39
2023/01/26 00:22:53;;;;;;;86.20;22.15;;;1.30;99.90;;;;;;5013022;28;20030;-38
2023/01/26 00:25:19;;;;;;;73.35;20.05;;;1.30;99.90;;;;;;5012961;28;20049;-41
2023/01/26 00:27:44;;;;;;;75.82;21.73;;;1.30;99.90;;;;;;5013259;28;20356;-40
2023/01/26 00:30:11;;;;;;;87.75;20.00;;;1.40;99.90;;;;;;5020469;28;20450;-41
2023/01/26 00:32:37;;;;;;;77.18;22.65;;;1.40;99.90;;;;;;5032722;28;20543;-38
2023/01/26 00:35:04;;;;;;;77.85;21.40;;;1.40;99.90;;;;;;5032607;28;20124;-39
2023/01/26 00:37:30;;;;;;;84.15;20.70;;;1.50;99.90;;;;;;5032203;28;20040;-40
2023/01/26 00:39:57;;;;;;;77.25;20.35;;;1.40;99.90;;;;;;5031345;28;20373;-41
2023/01/26 00:42:23;;;;;;;71.30;20.98;;;1.40;99.90;;;;;;5032565;28;20064;-39
2023/01/26 00:44:49;;;;;;;74.38;20.10;;;1.40;99.90;;;;;;5032619;28;20053;-42
2023/01/26 00:47:16;;;;;;;72.57;19.38;;;1.50;99.90;;;;;;5024759;28;20080;-40
2023/01/26 00:49:45;;;;;;;70.07;20.02;;;1.50;99.90;;;;;;5022228;28;20466;-41
2023/01/26 00:52:11;;;;;;;66.68;19.60;;;1.60;99.90;;;;;;5035698;28;20032;-41
2023/01/26 00:54:38;;;;;;;60.80;19.05;;;1.60;99.90;;;;;;5026354;28;20531;-38
2023/01/26 00:57:03;;;;;;;70.03;19.92;;;1.60;99.90;;;;;;5022907;28;20448;-40
2023/01/26 00:59:31;;;;;;;67.50;19.17;;;1.50;99.90;;;;;;5033835;28;20025;-42
2023/01/26 01:01:57;;;;;;;70.00;18.98;;;1.50;99.90;;;;;;5035195;28;20500;-39
2023/01/26 01:04:24;;;;;;;66.50;17.42;;;1.50;99.90;;;;;;5035174;28;20017;-40
2023/01/26 01:06:50;;;;;;;72.47;19.15;;;1.50;99.90;;;;;;5020442;28;20466;-41
2023/01/26 01:09:16;;;;;;;71.57;20.23;;;1.50;99.90;;;;;;5016650;28;20049;-41
2023/01/26 01:11:42;;;;;;;64.95;19.05;;;1.50;99.90;;;;;;5016595;28;20478;-44
2023/01/26 01:14:09;;;;;;;59.67;17.88;;;1.50;99.90;;;;;;5020419;28;20112;-41
2023/01/26 01:16:34;;;;;;;70.82;18.25;;;1.50;99.90;;;;;;5033970;28;20489;-40
2023/01/26 01:19:00;;;;;;;68.97;18.00;;;1.50;99.90;;;;;;5035931;28;20033;-40
2023/01/26 01:21:26;;;;;;;62.60;17.05;;;1.50;99.90;;;;;;5034733;28;20035;-38
2023/01/26 01:23:52;;;;;;;67.47;18.42;;;1.50;99.90;;;;;;5030792;28;20100;-41
2023/01/26 01:26:18;;;;;;;62.88;18.95;;;1.50;99.90;;;;;;5035915;28;20401;-47
2023/01/26 01:28:44;;;;;;;56.30;15.73;;;1.40;99.90;;;;;;5032831;28;20477;-44
2023/01/26 01:31:13;;;;;;;64.95;19.75;;;1.40;99.90;;;;;;5029803;28;20021;-41
2023/01/26 01:33:39;;;;;;;60.58;16.60;;;1.40;99.90;;;;;;5016832;28;20506;-40
2023/01/26 01:36:09;;;;;;;54.25;17.27;;;1.40;99.90;;;;;;5025939;28;20068;-43
2023/01/26 01:38:34;;;;;;;68.07;18.77;;;1.50;99.90;;;;;;5019614;28;20474;-44
2023/01/26 01:41:00;;;;;;;65.80;17.63;;;1.50;99.90;;;;;;5023732;28;20010;-42
2023/01/26 01:43:27;;;;;;;56.45;17.95;;;1.50;99.90;;;;;;5035851;28;20048;-42
2023/01/26 01:45:53;;;;;;;57.47;16.88;;;1.40;99.90;;;;;;5033678;28;20521;-42
2023/01/26 01:48:58;;;;;;;68.55;17.35;;;1.50;99.90;;;;;;5035791;28;20366;-44
2023/01/26 01:51:40;;;;;;;55.03;16.25;;;1.40;99.90;;;;;;5023174;28;20091;-42
2023/01/26 01:54:10;;;;;;;61.92;16.88;;;1.40;99.90;;;;;;5016552;28;20505;-41
2023/01/26 01:56:41;;;;;;;58.03;15.98;;;1.40;99.90;;;;;;5014862;28;20029;-46
2023/01/26 01:59:08;;;;;;;55.50;16.83;;;1.40;99.90;;;;;;5028303;28;20550;-43
2023/01/26 02:01:34;;;;;;;68.30;18.30;;;1.40;99.90;;;;;;5030140;28;20478;-44
2023/01/26 02:04:03;;;;;;;50.78;15.43;;;1.40;99.90;;;;;;5034618;28;20024;-42
2023/01/26 02:06:38;;;;;;;55.08;15.05;;;1.40;99.90;;;;;;5017400;28;20068;-38
2023/01/26 02:09:05;;;;;;;50.80;16.35;;;1.40;99.90;;;;;;5028387;28;20041;-41
2023/01/26 02:11:39;;;;;;;72.07;18.65;;;1.50;99.90;;;;;;5029191;28;20406;-45
2023/01/26 02:14:08;;;;;;;66.85;18.52;;;1.50;99.90;;;;;;5030858;28;20504;-43
2023/01/26 02:16:34;;;;;;;51.10;18.15;;;1.50;99.90;;;;;;5034714;28;20029;-43
2023/01/26 02:19:00;;;;;;;57.38;16.42;;;1.50;99.90;;;;;;5022726;28;20383;-48
2023/01/26 02:21:26;;;;;;;58.13;17.75;;;1.60;99.90;;;;;;5015039;28;20509;-43
2023/01/26 02:24:03;;;;;;;59.17;17.00;;;1.60;99.90;;;;;;5022759;28;20025;-45
2023/01/26 02:26:32;;;;;;;58.75;17.58;;;1.60;99.90;;;;;;5034717;28;20025;-40
2023/01/26 02:28:58;;;;;;;48.75;15.93;;;1.70;99.90;;;;;;5031884;28;20425;-41
2023/01/26 02:31:25;;;;;;;57.17;17.00;;;1.70;99.90;;;;;;5034691;28;20465;-42
2023/01/26 02:33:51;;;;;;;58.10;16.90;;;1.70;99.90;;;;;;5025953;28;20026;-41
2023/01/26 02:36:25;;;;;;;58.38;18.48;;;1.70;99.90;;;;;;5014920;28;20033;-35
2023/01/26 02:39:02;;;;;;;65.80;18.35;;;1.70;99.90;;;;;;5021590;28;20374;-38
2023/01/26 02:44:14;;;;;;;54.10;16.75;;;1.60;99.90;;;;;;5033013;28;20041;-39
2023/01/26 02:46:40;;;;;;;59.75;18.00;;;1.60;99.90;;;;;;5023789;28;20032;-35
2023/01/26 02:51:50;;;;;;;55.42;16.45;;;1.60;99.90;;;;;;5022131;28;20033;-48
2023/01/26 02:57:00;;;;;;;54.33;16.90;;;1.60;99.90;;;;;;5027903;28;20127;-45
2023/01/26 02:59:26;;;;;;;55.65;15.75;;;1.60;99.90;;;;;;5032531;28;20033;-45
2023/01/26 03:01:53;;;;;;;55.78;16.10;;;1.70;99.90;;;;;;5031016;28;20021;-38
2023/01/26 03:04:18;;;;;;;46.75;15.68;;;1.60;99.90;;;;;;5014324;28;20053;-39
2023/01/26 03:06:44;;;;;;;61.42;16.73;;;1.60;99.90;;;;;;5023507;28;20517;-39
2023/01/26 03:09:09;;;;;;;51.25;15.57;;;1.60;99.90;;;;;;5022664;28;20026;-40
2023/01/26 03:11:40;;;;;;;55.97;15.93;;;1.60;99.90;;;;;;5029510;28;20460;-38
2023/01/26 03:14:08;;;;;;;55.70;16.05;;;1.60;99.90;;;;;;5031003;28;20386;-40
2023/01/26 03:16:33;;;;;;;54.13;15.43;;;1.60;99.90;;;;;;5030415;28;20038;-44
2023/01/26 03:29:41;;;;;;;43.53;14.15;;;1.70;99.90;;;;;;5013952;28;20398;-39
2023/01/26 03:32:07;;;;;;;53.60;15.63;;;1.70;99.90;;;;;;5024434;28;20022;-39
2023/01/26 03:34:32;;;;;;;46.15;15.25;;;1.70;99.90;;;;;;5024718;28;20394;-39
2023/01/26 03:36:58;;;;;;;49.78;14.10;;;1.70;99.90;;;;;;5025032;28;20478;-36
2023/01/26 03:58:47;;;;;;;49.90;16.02;;;1.80;99.90;;;;;;5021620;28;20115;-37
2023/01/26 04:01:19;;;;;;;46.35;13.38;;;1.80;99.90;;;;;;5032008;28;20022;-39
2023/01/26 04:09:20;;;;;;;53.10;14.98;;;1.90;99.90;;;;;;5032251;28;20469;-42
2023/01/26 04:11:45;;;;;;;50.70;15.30;;;1.90;99.90;;;;;;5029604;28;20367;-44
2023/01/26 04:22:26;;;;;;;54.78;13.60;;;1.90;99.90;;;;;;5031954;28;20512;-40
2023/01/26 04:24:52;;;;;;;53.90;16.23;;;1.80;99.90;;;;;;5029395;28;20069;-40
2023/01/26 04:30:03;;;;;;;48.00;14.93;;;1.80;99.90;;;;;;5029472;28;20517;-42
2023/01/26 04:32:29;;;;;;;44.70;14.30;;;1.90;99.90;;;;;;5031863;28;20033;-39
2023/01/26 04:34:55;;;;;;;51.30;15.38;;;1.90;99.90;;;;;;5031607;28;20026;-40
2023/01/26 04:37:21;;;;;;;46.10;14.30;;;1.90;99.90;;;;;;5024343;28;20184;-46
2023/01/26 04:39:47;;;;;;;54.20;16.23;;;1.90;99.90;;;;;;5030850;28;20026;-53
2023/01/26 04:42:12;;;;;;;46.63;14.63;;;1.90;99.90;;;;;;5031295;28;20030;-46
2023/01/26 04:44:38;;;;;;;51.30;14.48;;;2.00;99.90;;;;;;5028365;28;20394;-44
2023/01/26 04:47:04;;;;;;;53.65;15.43;;;2.00;99.90;;;;;;5030106;28;20030;-45
2023/01/26 04:49:29;;;;;;;51.85;13.50;;;2.00;99.90;;;;;;5030048;28;20026;-42
2023/01/26 04:51:55;;;;;;;52.67;14.88;;;2.10;99.90;;;;;;5018456;28;20407;-44
2023/01/26 04:54:21;;;;;;;47.75;14.95;;;2.10;99.90;;;;;;5031473;28;20385;-42
2023/01/26 04:56:46;;;;;;;46.33;13.68;;;2.10;99.90;;;;;;5022039;28;20080;-43
2023/01/26 04:59:13;;;;;;;48.30;15.20;;;2.10;99.90;;;;;;5030023;28;20543;-43
2023/01/26 05:01:39;;;;;;;44.78;13.88;;;2.10;99.90;;;;;;5029600;28;20530;-42
2023/01/26 05:04:05;;;;;;;49.75;13.77;;;2.10;99.90;;;;;;5014979;28;20124;-42
2023/01/26 05:06:31;;;;;;;47.58;16.20;;;2.10;99.90;;;;;;5022673;28;20562;-49
2023/01/26 05:08:57;;;;;;;48.13;13.65;;;2.10;99.90;;;;;;5023627;28;20048;-35
2023/01/26 05:11:24;;;;;;;38.97;12.57;;;2.10;99.90;;;;;;5017700;28;20555;-42
2023/01/26 05:13:49;;;;;;;44.03;13.93;;;2.10;99.90;;;;;;5019505;28;20029;-43
2023/01/26 05:16:16;;;;;;;41.28;12.07;;;2.10;99.90;;;;;;5028910;28;20033;-38
2023/01/26 05:18:42;;;;;;;45.60;13.20;;;2.10;99.90;;;;;;5024506;28;20028;-45
2023/01/26 05:21:08;;;;;;;43.65;13.50;;;2.00;99.90;;;;;;5028862;28;20498;-44
2023/01/26 05:23:34;;;;;;;47.25;15.32;;;2.10;99.90;;;;;;5031081;28;20556;-55
2023/01/26 05:26:00;;;;;;;41.00;13.20;;;2.10;99.90;;;;;;5030717;28;20109;-39
2023/01/26 05:28:26;;;;;;;50.85;15.60;;;2.10;99.90;;;;;;5029581;28;20025;-39
2023/01/26 05:30:51;;;;;;;44.67;14.23;;;2.10;99.90;;;;;;5030091;28;20075;-39
2023/01/26 05:33:20;;;;;;;55.15;15.35;;;2.10;99.90;;;;;;5026039;28;20104;-38
2023/01/26 05:35:50;;;;;;;44.33;14.05;;;2.10;99.90;;;;;;5033313;28;20052;-38
2023/01/26 05:38:16;;;;;;;57.50;16.17;;;2.10;99.90;;;;;;5034900;28;20025;-37
2023/01/26 05:40:42;;;;;;;39.05;12.77;;;2.10;99.90;;;;;;5034805;28;20060;-39
2023/01/26 05:43:08;;;;;;;44.45;13.75;;;2.10;99.90;;;;;;5022703;28;20057;-38
2023/01/26 05:45:34;;;;;;;46.28;13.45;;;2.20;99.90;;;;;;5032062;28;20021;-40
2023/01/26 05:48:00;;;;;;;49.00;13.85;;;2.30;99.90;;;;;;5032628;28;20034;-41
2023/01/26 05:50:26;;;;;;;43.30;13.57;;;2.30;99.90;;;;;;5018400;28;20120;-40
2023/01/26 05:52:52;;;;;;;53.97;15.00;;;2.30;99.90;;;;;;5028676;28;20060;-38
2023/01/26 05:55:18;;;;;;;51.60;15.60;;;2.30;99.90;;;;;;5035251;28;20389;-40
2023/01/26 05:57:44;;;;;;;44.65;12.30;;;2.30;99.90;;;;;;5027192;28;20042;-41
2023/01/26 06:00:11;;;;;;;59.42;15.90;;;2.30;99.90;;;;;;5032183;28;20018;-37
2023/01/26 06:02:37;;;;;;;50.65;13.38;;;2.30;99.90;;;;;;5029029;28;20061;-40
2023/01/26 06:05:04;;;;;;;46.95;14.85;;;2.20;99.90;;;;;;5026316;28;20057;-43
2023/01/26 06:07:29;;;;;;;41.33;14.18;;;2.20;99.90;;;;;;5035058;28;20109;-48
2023/01/26 06:09:55;;;;;;;42.70;13.63;;;2.20;99.90;;;;;;5025139;28;20112;-40
2023/01/26 06:12:21;;;;;;;43.72;13.55;;;2.20;99.90;;;;;;5018903;28;20037;-43
2023/01/26 06:14:47;;;;;;;47.45;14.23;;;2.20;99.90;;;;;;5030130;28;20041;-41
2023/01/26 06:17:14;;;;;;;45.22;13.00;;;2.20;99.90;;;;;;5032511;28;20486;-42
2023/01/26 06:19:40;;;;;;;45.20;13.65;;;2.20;99.90;;;;;;5032065;28;20021;-34
2023/01/26 06:22:10;;;;;;;42.22;14.00;;;2.30;99.90;;;;;;5028605;28;20021;-40
2023/01/26 06:24:36;;;;;;;43.58;13.25;;;2.30;99.90;;;;;;5033958;28;20029;-41
2023/01/26 06:27:02;;;;;;;37.92;11.85;;;2.30;99.90;;;;;;5024982;28;20033;-43
2023/01/26 06:29:28;;;;;;;46.70;13.77;;;2.40;99.90;;;;;;5021971;28;20098;-46
2023/01/26 06:31:53;;;;;;;41.35;12.60;;;2.40;99.90;;;;;;5027837;28;20022;-41
2023/01/26 06:34:19;;;;;;;45.92;13.80;;;2.50;99.90;;;;;;5030759;28;20401;-41
2023/01/26 06:36:45;;;;;;;48.67;12.65;;;2.50;99.90;;;;;;5034043;28;20033;-38
2023/01/26 06:39:11;;;;;;;47.50;14.07;;;2.50;99.90;;;;;;5032131;28;20026;-41
2023/01/26 06:41:37;;;;;;;49.10;13.35;;;2.50;99.90;;;;;;5029257;28;20354;-37
2023/01/26 06:44:03;;;;;;;33.25;11.35;;;2.60;99.90;;;;;;5030665;28;20025;-41
2023/01/26 06:46:29;;;;;;;44.80;14.30;;;2.60;99.90;;;;;;5033713;28;20497;-45
2023/01/26 06:48:54;;;;;;;39.75;12.93;;;2.60;99.90;;;;;;5032424;28;20523;-41
2023/01/26 06:51:20;;;;;;;38.15;13.75;;;2.60;99.90;;;;;;5030854;28;20026;-42
2023/01/26 06:53:54;;;;;;;41.00;13.68;;;2.60;99.90;;;;;;5032158;28;20041;-42
2023/01/26 06:56:21;;;;;;;45.17;13.60;;;2.70;99.90;;;;;;5034135;28;20029;-43
2023/01/26 06:58:46;;;;;;;53.33;14.77;;;2.70;99.90;;;;;;5032866;28;20448;-44
2023/01/26 07:01:24;;;;;;;44.60;14.55;;;2.70;99.90;;;;;;5022603;28;20025;-42
2023/01/26 07:03:50;;;;;;;39.97;10.73;;;2.60;99.90;;;;;;5028971;28;20087;-42
2023/01/26 07:06:16;;;;;;;52.80;13.38;;;2.70;99.90;;;;;;5031147;28;20494;-41
2023/01/26 07:08:42;;;;;;;46.13;13.65;;;2.70;99.90;;;;;;5030207;28;20025;-41
2023/01/26 07:11:08;;;;;;;53.45;14.05;;;2.70;99.90;;;;;;5017033;28;20033;-39
2023/01/26 07:13:34;;;;;;;58.58;12.82;;;2.70;99.90;;;;;;5023474;28;20489;-37
2023/01/26 07:16:09;;;;;;;52.15;14.15;;;2.70;99.90;;;;;;5030801;28;20033;-38
2023/01/26 07:18:36;;;;;;;42.53;11.80;;;2.70;99.90;;;;;;5025705;28;20037;-38
2023/01/26 07:21:08;;;;;;;46.72;13.48;;;2.80;99.90;;;;;;5028951;28;20020;-38
2023/01/26 07:23:34;;;;;;;47.78;12.77;;;2.80;99.90;;;;;;5031092;28;20073;-38
2023/01/26 07:25:59;;;;;;;44.05;12.63;;;2.80;99.90;;;;;;5024641;28;20544;-35
2023/01/26 07:28:26;;;;;;;53.72;13.48;;;2.80;99.90;;;;;;5032790;28;20033;-38
2023/01/26 07:30:52;;;;;;;57.72;14.45;;;2.90;99.90;;;;;;5030504;28;20500;-39
2023/01/26 07:33:18;;;;;;;40.72;12.77;;;2.90;99.90;;;;;;5029535;28;20041;-38
2023/01/26 07:35:44;;;;;;;47.75;12.00;;;2.90;99.90;;;;;;5022143;28;20504;-36
2023/01/26 07:38:10;;;;;;;40.50;11.85;;;3.00;99.90;;;;;;5030188;28;20021;-38
2023/01/26 07:40:36;;;;;;;42.60;11.70;;;3.10;99.90;;;;;;5031804;28;20025;-37
2023/01/26 07:43:01;;;;;;;46.60;11.45;;;3.10;99.90;;;;;;5030691;28;20032;-37
2023/01/26 07:45:30;;;;;;;44.75;13.07;;;3.10;99.90;;;;;;5029725;28;20020;-37
2023/01/26 07:47:56;;;;;;;48.22;11.48;;;3.20;99.90;;;;;;5027310;28;20482;-36
2023/01/26 07:50:24;;;;;;;39.80;12.77;;;3.30;99.90;;;;;;5027369;28;20525;-41
2023/01/26 07:52:51;;;;;;;;;;;3.30;99.90;;;;;;5028346;28;20028;-39
2023/01/26 07:55:18;;;;;;;44.60;12.65;;;3.40;99.90;;;;;;5021884;28;20369;-36
2023/01/26 07:57:47;;;;;;;38.25;12.07;;;3.40;99.90;;;;;;5030376;28;20536;-42
2023/01/26 08:00:14;;;;;;;43.33;11.52;;;3.40;99.90;;;;;;5028722;28;20026;-38
2023/01/26 08:02:40;;;;;;;36.33;10.43;;;3.40;99.90;;;;;;5030174;28;20386;-37
2023/01/26 08:05:06;;;;;;;33.67;10.20;;;3.50;99.90;;;;;;5013914;28;20022;-38
2023/01/26 08:07:31;;;;;;;35.45;10.82;;;3.50;99.90;;;;;;5019878;28;20501;-41
2023/01/26 08:09:58;;;;;;;51.92;9.80;;;3.50;99.90;;;;;;5027182;28;20029;-39
2023/01/26 08:12:24;;;;;;;42.50;10.88;;;3.60;99.90;;;;;;5026260;28;20048;-40
2023/01/26 08:14:49;;;;;;;38.88;10.07;;;3.70;99.90;;;;;;5033841;28;20026;-37
2023/01/26 08:17:16;;;;;;;39.53;9.25;;;3.70;99.90;;;;;;5020647;28;20066;-38
2023/01/26 08:19:42;;;;;;;43.33;10.05;;;3.80;99.90;;;;;;5021691;28;20072;-35
2023/01/26 08:22:08;;;;;;;51.78;10.63;;;3.90;99.90;;;;;;5027735;28;20025;-36
2023/01/26 08:24:34;;;;;;;25.75;9.32;;;3.90;99.90;;;;;;5032717;28;20021;-39
2023/01/26 08:26:59;;;;;;;34.45;9.18;;;4.00;99.90;;;;;;5022426;28;20378;-38
2023/01/26 08:29:25;;;;;;;37.22;8.55;;;4.10;99.90;;;;;;5012309;28;20033;-38
2023/01/26 08:31:51;;;;;;;34.88;8.15;;;4.20;99.90;;;;;;5028994;28;20245;-39
2023/01/26 08:34:16;;;;;;;33.45;8.02;;;4.20;99.90;;;;;;5022142;28;20374;-38
2023/01/26 08:36:42;;;;;;;26.63;7.13;;;4.20;99.90;;;;;;5016385;28;20025;-37
2023/01/26 08:39:08;;;;;;;27.35;8.05;;;4.30;99.90;;;;;;5023457;28;20030;-36
2023/01/26 08:41:33;;;;;;;35.25;7.85;;;4.30;99.90;;;;;;5024589;28;20107;-39
2023/01/26 08:43:59;;;;;;;25.35;6.60;;;4.40;99.90;;;;;;5020417;28;20386;-37
2023/01/26 08:46:25;;;;;;;37.20;7.78;;;4.50;99.90;;;;;;5032715;28;20075;-34
2023/01/26 08:48:51;;;;;;;38.47;5.85;;;4.50;99.90;;;;;;5019841;28;20040;-36
2023/01/26 08:51:17;;;;;;;29.85;5.93;;;4.60;99.90;;;;;;5023728;28;20021;-37
2023/01/26 08:53:43;;;;;;;22.75;6.05;;;4.70;99.90;;;;;;5024702;28;20392;-41
2023/01/26 08:56:11;;;;;;;27.38;6.40;;;4.80;99.90;;;;;;5026750;28;20025;-40
2023/01/26 08:58:37;;;;;;;16.90;5.07;;;4.90;99.90;;;;;;5023385;28;20476;-38
2023/01/26 09:01:14;;;;;;;27.38;5.13;;;5.00;99.90;;;;;;5013274;28;20422;-40
2023/01/26 09:03:40;;;;;;;32.25;5.22;;;5.20;99.90;;;;;;5011052;28;20045;-38
2023/01/26 09:06:08;;;;;;;17.25;4.07;;;5.30;99.90;;;;;;5017513;28;20137;-39
2023/01/26 09:08:34;;;;;;;20.65;4.63;;;5.40;99.90;;;;;;5035777;28;20036;-38
2023/01/26 09:11:00;;;;;;;24.95;4.50;;;5.50;99.90;;;;;;5035810;28;20482;-38
2023/01/26 09:13:26;;;;;;;24.67;3.33;;;5.60;99.90;;;;;;5018007;28;20053;-39
2023/01/26 09:15:51;;;;;;;30.52;3.33;;;5.70;99.90;;;;;;5029270;28;20375;-42
2023/01/26 09:18:17;;;;;;;41.63;3.42;;;5.80;99.90;;;;;;5026509;28;20490;-39
2023/01/26 09:20:43;;;;;;;14.70;2.78;;;5.90;99.90;;;;;;5028565;28;20021;-36
2023/01/26 09:23:11;;;;;;;19.83;2.65;;;5.90;99.90;;;;;;5030721;28;20038;-37
2023/01/26 09:25:36;;;;;;;31.48;2.88;;;6.10;99.90;;;;;;5035359;28;20498;-36
2023/01/26 09:28:02;;;;;;;29.83;3.75;;;6.10;99.90;;;;;;5024236;28;20026;-37
2023/01/26 09:30:28;;;;;;;13.00;2.75;;;6.30;99.90;;;;;;5028626;28;20030;-38
2023/01/26 09:33:01;;;;;;;18.65;2.92;;;6.30;99.90;;;;;;5032200;28;20033;-39
2023/01/26 09:35:28;;;;;;;25.55;2.58;;;6.40;99.90;;;;;;5030030;28;20029;-37
2023/01/26 09:37:54;;;;;;;25.48;3.05;;;6.50;99.90;;;;;;5031446;28;20030;-40
2023/01/26 09:40:36;;;;;;;35.08;3.03;;;6.50;99.90;;;;;;5027971;28;20057;-40
2023/01/26 09:43:35;;;;;;;13.95;1.75;;;6.60;99.90;;;;;;5025133;28;20030;-40
2023/01/26 09:46:03;;;;;;;11.38;2.40;;;6.60;99.90;;;;;;5022524;28;20025;-38
2023/01/26 09:48:49;;;;;;;18.38;1.25;;;6.70;99.90;;;;;;5030482;28;20060;-38
2023/01/26 09:51:37;;;;;;;22.25;2.40;;;6.70;99.90;;;;;;5034529;28;20116;-37
2023/01/26 09:54:27;;;;;;;13.48;1.80;;;6.60;99.90;;;;;;5030271;28;20028;-37
2023/01/26 09:56:54;;;;;;;25.42;2.80;;;6.70;99.90;;;;;;5023838;28;20363;-39
2023/01/26 09:59:39;;;;;;;22.77;2.33;;;6.80;99.90;;;;;;5033686;28;20029;-40
2023/01/26 10:02:37;;;;;;;14.38;2.10;;;6.80;99.90;;;;;;5029680;28;20025;-36
2023/01/26 10:05:18;;;;;;;36.42;2.42;;;6.90;99.90;;;;;;5026791;28;20032;-37
2023/01/26 10:07:44;;;;;;;4.68;1.40;;;6.90;99.90;;;;;;5024145;28;20378;-40
2023/01/26 10:10:24;;;;;;;16.88;2.92;;;7.00;99.90;;;;;;5030113;28;20509;-40
2023/01/26 10:13:11;;;;;;;20.55;3.42;;;7.00;99.90;;;;;;5033132;28;20500;-39
2023/01/26 10:15:41;;;;;;;19.13;3.63;;;7.00;99.90;;;;;;5019045;28;20057;-38
2023/01/26 10:18:20;;;;;;;26.73;1.90;;;7.00;99.90;;;;;;5026855;28;20388;-41
2023/01/26 10:23:47;;;;;;;21.20;1.83;;;7.10;99.90;;;;;;5031894;28;20040;-40
2023/01/26 10:26:18;;;;;;;15.88;1.83;;;7.00;99.90;;;;;;5034952;28;20500;-40
2023/01/26 10:28:46;;;;;;;15.82;2.72;;;7.00;99.90;;;;;;5028889;28;20052;-38
2023/01/26 10:31:20;;;;;;;;;;;7.00;99.90;;;;;;5033970;28;20104;-40
2023/01/26 10:34:02;;;;;;;19.85;2.92;;;6.90;99.90;;;;;;5033167;28;19909;-40
2023/01/26 10:36:31;;;;;;;12.90;2.00;;;7.00;99.90;;;;;;5034668;28;20052;-41
2023/01/26 10:39:08;;;;;;;11.07;2.28;;;7.00;99.90;;;;;;5029253;28;20025;-39
2023/01/26 10:41:34;;;;;;;14.20;1.85;;;6.90;99.90;;;;;;5031437;28;20371;-43
2023/01/26 10:44:08;;;;;;;16.20;2.47;;;7.00;99.90;;;;;;5027013;28;20029;-38
2023/01/26 10:46:45;;;;;;;22.80;4.03;;;7.00;99.90;;;;;;5018190;28;20486;-40
2023/01/26 10:49:11;;;;;;;16.47;1.70;;;6.90;99.90;;;;;;5025102;28;20056;-44
2023/01/26 10:51:38;;;;;;;14.27;1.75;;;7.10;99.90;;;;;;5021463;28;20290;-39
2023/01/26 10:54:17;;;;;;;23.00;2.17;;;7.10;99.90;;;;;;5029769;28;20569;-40
2023/01/26 10:57:13;;;;;;;18.55;2.03;;;7.20;99.90;;;;;;5029641;28;20030;-37
2023/01/26 11:00:07;;;;;;;5.13;1.13;;;7.30;99.90;;;;;;5030469;28;20030;-41
2023/01/26 11:02:35;;;;;;;8.02;1.58;;;7.30;99.90;;;;;;5030278;28;20474;-42
2023/01/26 11:05:00;;;;;;;22.02;2.10;;;7.40;99.90;;;;;;5031238;28;20152;-42
2023/01/26 11:07:30;;;;;;;14.95;1.88;;;7.50;99.90;;;;;;5033268;28;20453;-39
2023/01/26 11:10:14;;;;;;;14.88;2.60;;;7.60;99.90;;;;;;5029285;28;20124;-35
2023/01/26 11:12:40;;;;;;;24.80;3.53;;;7.70;99.90;;;;;;5020666;28;20033;-41
2023/01/26 11:15:18;;;;;;;24.15;3.58;;;7.80;99.90;;;;;;5028701;28;20034;-41
2023/01/26 11:17:49;;;;;;;22.80;2.50;;;8.00;99.90;;;;;;5033285;28;20029;-41
2023/01/26 11:20:46;;;;;;;18.98;3.63;;;8.20;99.90;;;;;;5031330;28;20466;-38
2023/01/26 11:23:25;;;;;;;25.60;3.25;;;8.20;99.90;;;;;;5026016;28;20053;-50
2023/01/26 11:26:08;;;;;;;12.85;1.90;;;8.20;99.90;;;;;;5019324;28;20021;-43
2023/01/26 11:29:15;;;;;;;13.13;1.90;;;8.20;99.90;;;;;;5025791;28;20463;-45
2023/01/26 11:32:14;;;;;;;9.90;1.67;;;8.10;99.90;;;;;;5026777;28;20125;-43
2023/01/26 11:35:11;;;;;;;17.88;2.95;;;8.20;99.90;;;;;;5020678;28;20080;-47
2023/01/26 11:37:42;;;;;;;14.77;1.70;;;8.10;99.90;;;;;;5013569;28;20034;-43
2023/01/26 11:40:36;;;;;;;8.10;1.63;;;8.00;99.90;;;;;;5022270;28;20029;-42
2023/01/26 11:43:12;;;;;;;14.07;1.95;;;8.00;99.90;;;;;;5031781;28;20025;-43
2023/01/26 11:46:08;;;;;;;20.52;2.13;;;8.00;99.90;;;;;;5031579;28;20458;-41
2023/01/26 11:48:53;;;;;;;9.02;1.85;;;7.90;99.90;;;;;;5029237;28;20049;-49
2023/01/26 11:51:52;;;;;;;17.58;2.35;;;8.00;99.90;;;;;;5012049;28;20132;-42
2023/01/26 11:54:29;;;;;;;13.95;1.15;;;8.10;99.90;;;;;;5019987;28;20037;-43
2023/01/26 11:57:03;;;;;;;19.10;1.58;;;8.20;99.90;;;;;;5016404;28;20551;-46
2023/01/26 11:59:40;;;;;;;17.70;2.25;;;8.30;99.90;;;;;;5026539;28;20478;-43
2023/01/26 12:02:24;;;;;;;14.77;1.50;;;8.30;99.90;;;;;;5013293;28;20069;-42
2023/01/26 12:04:51;;;;;;;12.77;1.80;;;8.30;99.90;;;;;;5013382;28;20372;-40
2023/01/26 12:07:29;;;;;;;12.02;1.77;;;8.30;99.90;;;;;;5022176;28;20091;-40
2023/01/26 12:09:57;;;;;;;26.63;1.75;;;8.40;99.90;;;;;;5033006;28;20099;-44
2023/01/26 12:12:31;;;;;;;21.15;1.40;;;8.50;99.90;;;;;;5031495;28;20024;-43
2023/01/26 12:15:21;;;;;;;18.73;2.10;;;8.60;99.90;;;;;;5031958;28;20117;-42
2023/01/26 12:18:07;;;;;;;25.70;1.52;;;8.70;99.90;;;;;;5031521;28;20504;-45
2023/01/26 12:20:49;;;;;;;9.07;2.05;;;8.70;99.90;;;;;;5032869;28;20079;-43
2023/01/26 12:23:17;;;;;;;15.10;1.63;;;8.70;99.90;;;;;;5031545;28;20029;-47
2023/01/26 12:25:51;;;;;;;5.75;1.27;;;8.70;99.90;;;;;;5032758;28;20021;-42
2023/01/26 12:28:28;;;;;;;20.23;1.58;;;8.80;99.90;;;;;;5030074;28;20033;-43
2023/01/26 12:31:12;;;;;;;8.50;1.42;;;8.70;99.90;;;;;;5013117;28;20519;-42
2023/01/26 12:33:38;;;;;;;17.58;3.22;;;8.70;99.90;;;;;;5022616;28;20466;-46
2023/01/26 12:36:15;;;;;;;18.30;1.67;;;8.60;99.90;;;;;;5031249;28;20480;-42
2023/01/26 12:38:41;;;;;;;;;;;8.60;99.90;;;;;;5013334;28;20022;-46
2023/01/26 12:41:19;;;;;;;6.25;1.20;;;8.80;99.90;;;;;;5014857;28;19912;-45
2023/01/26 12:44:03;;;;;;;19.27;2.35;;;8.90;99.90;;;;;;5017747;28;20060;-42
2023/01/26 12:46:36;;;;;;;25.33;1.88;;;8.80;99.90;;;;;;5020936;28;20064;-45
2023/01/26 12:49:24;;;;;;;14.73;3.25;;;8.90;99.90;;;;;;5031903;28;20037;-47
2023/01/26 12:51:55;;;;;;;15.50;2.53;;;8.80;99.90;;;;;;5030319;28;20044;-42
2023/01/26 12:54:25;;;;;;;19.60;2.20;;;8.80;99.90;;;;;;5036634;28;20022;-41
2023/01/26 12:56:59;;;;;;;10.52;1.70;;;8.70;99.90;;;;;;5028839;28;20033;-42
2023/01/26 12:59:30;;;;;;;8.40;1.30;;;8.60;99.90;;;;;;5016725;28;20117;-43
2023/01/26 13:01:55;;;;;;;10.48;1.42;;;8.70;99.90;;;;;;5020818;28;20389;-40
2023/01/26 13:04:21;;;;;;;17.67;1.73;;;8.50;99.90;;;;;;5034975;28;20045;-44
2023/01/26 13:07:02;;;;;;;15.77;1.23;;;8.50;99.90;;;;;;5031859;28;20032;-57
2023/01/26 13:09:28;;;;;;;7.50;1.92;;;8.50;99.90;;;;;;5026791;28;20110;-41
2023/01/26 13:11:59;;;;;;;10.40;1.10;;;8.70;99.90;;;;;;5026877;28;20529;-42
2023/01/26 13:14:33;;;;;;;18.55;2.10;;;8.70;99.90;;;;;;5025649;28;20111;-42
2023/01/26 13:17:13;;;;;;;15.00;2.10;;;8.70;99.90;;;;;;5016180;28;20038;-41
2023/01/26 13:19:42;;;;;;;15.57;2.20;;;8.70;99.90;;;;;;5016299;28;20037;-45
2023/01/26 13:22:23;;;;;;;12.32;1.52;;;8.60;99.90;;;;;;5028890;28;20570;-42
2023/01/26 13:24:54;;;;;;;8.77;1.27;;;8.50;99.90;;;;;;5016483;28;20030;-43
2023/01/26 13:27:33;;;;;;;16.35;2.03;;;8.60;99.90;;;;;;5016888;28;20079;-41
2023/01/26 13:30:00;;;;;;;21.58;3.90;;;8.70;99.90;;;;;;5017698;28;20426;-45
2023/01/26 13:32:25;;;;;;;10.35;1.48;;;8.80;99.90;;;;;;5016041;28;20030;-44
2023/01/26 13:35:00;;;;;;;9.75;1.52;;;8.90;99.90;;;;;;5015877;28;20399;-41
2023/01/26 13:37:34;;;;;;;8.07;1.23;;;8.90;99.90;;;;;;5015936;28;20482;-46
2023/01/26 13:40:04;;;;;;;14.00;1.08;;;8.90;99.90;;;;;;5026033;28;20031;-47
2023/01/26 13:43:19;;;;;;;10.90;1.30;;;9.00;99.90;;;;;;5030070;28;20052;-44
2023/01/26 13:46:04;;;;;;;12.30;1.08;;;8.90;99.90;;;;;;5015445;28;20538;-46
2023/01/26 13:48:49;;;;;;;11.75;1.15;;;8.80;99.90;;;;;;5015747;28;20044;-49
2023/01/26 13:51:29;;;;;;;13.25;1.05;;;8.80;99.90;;;;;;5017265;28;20042;-42
2023/01/26 13:54:12;;;;;;;12.52;1.95;;;8.70;99.90;;;;;;5015185;28;20482;-42
2023/01/26 13:56:57;;;;;;;5.55;0.85;;;8.70;99.90;;;;;;5029424;28;20496;-38